X  Close Metar Aviation Weather Data     EHKD De Kooy Airport
Temperature
15°C Temperature
13°C Dewpoint
88% Humidity



Wind
10 KM/H
6 MPH
3 M/S
5 KTS



280°
W
Current Conditions

Mostly Scattered Clouds Mostly Scattered Clouds
Pressure 1012.87 (hPa) - 29.91 (inHg)
Visibility 6 (mile) - 9.7 (km)
Airport
Airport-code EHKD

Location: De Kooy Airport
Distance: 34 (km)

Metar:
EHKD 220157Z AUTO 28005KT 9999 SCT016 BKN020 15/13 Q1013 WHT

Time: 22-07-2024 03:57 CEST